Time;durP1;ratioP1;P1;durP2;ratioP2;P2;SDS_P1;SDS_P2;PMS_P1;PMS_P2;Temp;Humidity;BMP_temperature;BMP_pressure;BME280_temperature;BME280_humidity;BME280_pressure;Samples;Min_cycle;Max_cycle;Signal;HPM_P1;HPM_P2
2023/05/19 00:01:07;;;;;;;7.18;3.10;;;;;;;;;;5017537;28;20033;-79
2023/05/19 00:03:35;;;;;;;6.18;2.78;;;;;;;;;;5028627;28;20493;-79
2023/05/19 00:06:01;;;;;;;4.95;2.47;;;;;;;;;;5023593;28;20061;-78
2023/05/19 00:08:30;;;;;;;6.32;2.75;;;;;;;;;;5022416;28;20521;-78
2023/05/19 00:10:56;;;;;;;4.53;2.45;;;;;;;;;;5014759;28;20481;-78
2023/05/19 00:13:22;;;;;;;6.10;2.70;;;;;;;;;;5027991;28;20425;-79
2023/05/19 00:15:48;;;;;;;6.40;2.85;;;;;;;;;;5027973;28;20037;-78
2023/05/19 00:18:15;;;;;;;4.65;2.83;;;;;;;;;;5029362;28;20473;-78
2023/05/19 00:20:41;;;;;;;4.68;2.80;;;;;;;;;;5024489;28;20041;-77
2023/05/19 00:23:06;;;;;;;4.93;2.60;;;;;;;;;;5026641;28;20032;-78
2023/05/19 00:25:31;;;;;;;5.50;2.72;;;;;;;;;;5019425;28;20108;-78
2023/05/19 00:27:58;;;;;;;6.25;2.95;;;;;;;;;;5027310;28;20462;-78
2023/05/19 00:30:23;;;;;;;5.53;2.72;;;;;;;;;;5027080;28;20057;-78
2023/05/19 00:32:49;;;;;;;5.35;2.90;;;;;;;;;;5022945;28;20017;-77
2023/05/19 00:35:15;;;;;;;4.22;2.88;;;;;;;;;;5019203;28;20030;-78
2023/05/19 00:37:40;;;;;;;4.82;2.72;;;;;;;;;;5016245;28;20494;-78
2023/05/19 00:40:07;;;;;;;5.75;2.72;;;;;;;;;;5025900;28;20025;-79
2023/05/19 00:42:32;;;;;;;4.75;2.50;;;;;;;;;;5008103;28;20029;-79
2023/05/19 00:44:58;;;;;;;6.05;2.78;;;;;;;;;;5019421;28;20099;-78
2023/05/19 00:47:24;;;;;;;4.57;2.78;;;;;;;;;;5015875;28;20032;-78
2023/05/19 00:49:49;;;;;;;5.53;2.78;;;;;;;;;;5020412;28;20673;-78
2023/05/19 00:52:15;;;;;;;4.43;3.00;;;;;;;;;;5035075;28;20043;-76
2023/05/19 00:54:40;;;;;;;6.22;2.72;;;;;;;;;;5039152;28;20112;-78
2023/05/19 00:57:06;;;;;;;7.20;2.85;;;;;;;;;;5040675;28;20489;-77
2023/05/19 00:59:31;;;;;;;5.35;2.83;;;;;;;;;;5035116;28;20040;-78
2023/05/19 01:01:57;;;;;;;7.75;3.15;;;;;;;;;;5039527;28;20033;-78
2023/05/19 01:04:24;;;;;;;5.30;2.78;;;;;;;;;;5035755;28;20570;-78
2023/05/19 01:06:53;;;;;;;5.53;3.08;;;;;;;;;;5024794;28;20069;-77
2023/05/19 01:09:22;;;;;;;7.10;3.00;;;;;;;;;;5042581;28;20484;-78
2023/05/19 01:11:49;;;;;;;5.82;2.67;;;;;;;;;;5041106;28;20036;-76
2023/05/19 01:14:15;;;;;;;5.78;2.72;;;;;;;;;;5030248;28;20068;-79
2023/05/19 01:16:53;;;;;;;6.57;3.00;;;;;;;;;;5046204;28;20037;-78
2023/05/19 01:19:51;;;;;;;5.03;2.90;;;;;;;;;;5022913;28;20024;-79
2023/05/19 01:22:35;;;;;;;6.38;2.85;;;;;;;;;;5001242;28;20045;-77
2023/05/19 01:25:32;;;;;;;5.30;3.10;;;;;;;;;;5037856;28;20029;-78
2023/05/19 01:28:35;;;;;;;7.60;2.92;;;;;;;;;;5013158;28;20409;-78
2023/05/19 01:31:05;;;;;;;5.43;2.72;;;;;;;;;;5028284;28;20420;-78
2023/05/19 01:33:32;;;;;;;6.65;2.88;;;;;;;;;;5043007;28;20380;-78
2023/05/19 01:35:58;;;;;;;6.43;3.03;;;;;;;;;;5039550;28;20049;-78
2023/05/19 01:38:24;;;;;;;7.65;2.90;;;;;;;;;;5028109;28;20077;-78
2023/05/19 01:40:51;;;;;;;7.68;3.10;;;;;;;;;;5046437;28;20036;-78
2023/05/19 01:43:19;;;;;;;6.80;3.08;;;;;;;;;;5048349;28;20110;-79
2023/05/19 01:45:46;;;;;;;5.22;3.00;;;;;;;;;;5024211;28;20028;-78
2023/05/19 01:48:12;;;;;;;6.43;3.13;;;;;;;;;;5047593;28;20028;-78
2023/05/19 01:50:39;;;;;;;6.68;2.97;;;;;;;;;;5023879;28;20029;-78
2023/05/19 01:53:04;;;;;;;6.10;3.15;;;;;;;;;;5047417;28;20032;-78
2023/05/19 01:55:30;;;;;;;6.13;3.10;;;;;;;;;;5051301;28;20025;-77
2023/05/19 01:58:13;;;;;;;8.65;3.35;;;;;;;;;;5046488;28;20029;-79
2023/05/19 02:00:50;;;;;;;4.95;2.95;;;;;;;;;;5049786;28;20396;-79
2023/05/19 02:03:46;;;;;;;8.48;3.45;;;;;;;;;;5050622;28;20025;-78
2023/05/19 02:06:27;;;;;;;7.63;3.38;;;;;;;;;;5040692;28;20033;-79
2023/05/19 02:08:55;;;;;;;5.50;2.92;;;;;;;;;;5025306;28;20176;-77
2023/05/19 02:11:29;;;;;;;6.10;2.97;;;;;;;;;;5044168;28;20557;-79
2023/05/19 02:13:59;;;;;;;6.25;3.10;;;;;;;;;;5042159;28;20489;-78
2023/05/19 02:16:27;;;;;;;6.68;3.15;;;;;;;;;;5042182;28;20024;-78
2023/05/19 02:18:54;;;;;;;6.55;3.17;;;;;;;;;;5043669;28;20029;-78
2023/05/19 02:21:19;;;;;;;8.20;3.65;;;;;;;;;;5040139;28;20127;-78
2023/05/19 02:23:45;;;;;;;6.07;3.25;;;;;;;;;;5044557;28;20057;-78
2023/05/19 02:26:11;;;;;;;6.18;3.22;;;;;;;;;;5054823;28;20100;-78
2023/05/19 02:28:36;;;;;;;7.72;3.13;;;;;;;;;;5027451;28;20216;-79
2023/05/19 02:31:04;;;;;;;5.50;3.17;;;;;;;;;;5047006;28;20112;-79
2023/05/19 02:33:29;;;;;;;4.68;2.90;;;;;;;;;;5046306;28;20167;-78
2023/05/19 02:35:56;;;;;;;6.97;2.95;;;;;;;;;;5046609;28;20111;-78
2023/05/19 02:38:21;;;;;;;5.43;3.10;;;;;;;;;;5040024;28;20017;-77
2023/05/19 02:40:46;;;;;;;7.05;3.15;;;;;;;;;;5048331;28;20037;-78
2023/05/19 02:43:12;;;;;;;5.03;3.25;;;;;;;;;;5021251;28;20595;-78
2023/05/19 02:45:37;;;;;;;5.82;2.92;;;;;;;;;;5044846;28;20573;-79
2023/05/19 02:48:03;;;;;;;8.73;3.55;;;;;;;;;;5045566;28;20473;-78
2023/05/19 02:50:28;;;;;;;5.68;3.25;;;;;;;;;;5049668;28;20036;-78
2023/05/19 02:52:53;;;;;;;5.55;3.03;;;;;;;;;;5046286;28;20025;-78
2023/05/19 02:55:19;;;;;;;6.43;3.42;;;;;;;;;;5036446;28;20562;-79
2023/05/19 02:57:44;;;;;;;6.13;3.28;;;;;;;;;;5043561;28;20079;-77
2023/05/19 03:00:10;;;;;;;5.50;3.20;;;;;;;;;;5040489;28;20056;-78
2023/05/19 03:02:36;;;;;;;5.85;3.40;;;;;;;;;;5045202;28;20514;-79
2023/05/19 03:05:02;;;;;;;7.78;3.03;;;;;;;;;;5038804;28;20191;-78
2023/05/19 03:07:27;;;;;;;5.65;2.80;;;;;;;;;;5042557;28;20392;-78
2023/05/19 03:09:53;;;;;;;7.10;3.13;;;;;;;;;;5041345;28;20025;-78
2023/05/19 03:12:18;;;;;;;6.97;3.42;;;;;;;;;;5037786;28;20039;-78
2023/05/19 03:14:44;;;;;;;5.78;3.03;;;;;;;;;;5039696;28;20033;-78
2023/05/19 03:17:09;;;;;;;5.07;3.05;;;;;;;;;;5036027;28;20021;-78
2023/05/19 03:19:35;;;;;;;6.07;3.08;;;;;;;;;;5043792;28;20112;-78
2023/05/19 03:22:00;;;;;;;6.10;3.15;;;;;;;;;;5026079;28;20032;-78
2023/05/19 03:24:26;;;;;;;6.93;3.30;;;;;;;;;;5044283;28;20441;-79
2023/05/19 03:26:51;;;;;;;5.93;3.40;;;;;;;;;;5044413;28;20073;-78
2023/05/19 03:29:17;;;;;;;6.85;3.38;;;;;;;;;;5033568;28;20108;-79
2023/05/19 03:31:42;;;;;;;6.50;3.40;;;;;;;;;;5046911;28;20039;-78
2023/05/19 03:34:07;;;;;;;6.45;3.25;;;;;;;;;;5047938;28;20024;-79
2023/05/19 03:36:38;;;;;;;4.90;2.90;;;;;;;;;;5027668;28;20029;-78
2023/05/19 03:39:05;;;;;;;7.90;3.47;;;;;;;;;;5041809;28;20590;-76
2023/05/19 03:41:31;;;;;;;6.97;3.20;;;;;;;;;;5024613;28;20108;-78
2023/05/19 03:43:56;;;;;;;6.18;3.47;;;;;;;;;;5024052;28;20108;-78
2023/05/19 03:46:22;;;;;;;5.88;3.30;;;;;;;;;;5036966;28;20379;-78
2023/05/19 03:48:47;;;;;;;4.95;2.97;;;;;;;;;;5041933;28;20085;-78
2023/05/19 03:51:12;;;;;;;6.45;3.10;;;;;;;;;;5021569;28;20025;-78
2023/05/19 03:53:38;;;;;;;5.25;3.17;;;;;;;;;;5044953;28;20025;-77
2023/05/19 03:56:04;;;;;;;6.05;3.42;;;;;;;;;;5043709;28;20029;-78
2023/05/19 03:58:30;;;;;;;7.50;3.50;;;;;;;;;;5042825;28;20017;-78
2023/05/19 04:00:55;;;;;;;5.50;3.20;;;;;;;;;;5035598;28;20482;-78
2023/05/19 04:03:20;;;;;;;7.50;3.65;;;;;;;;;;5021067;28;20030;-78
2023/05/19 04:05:46;;;;;;;7.78;3.50;;;;;;;;;;5043402;28;20124;-78
2023/05/19 04:08:11;;;;;;;6.55;3.20;;;;;;;;;;5026567;28;20025;-77
2023/05/19 04:10:36;;;;;;;6.28;3.40;;;;;;;;;;5034868;28;20025;-78
2023/05/19 04:13:02;;;;;;;8.27;3.53;;;;;;;;;;5041253;28;20055;-78
2023/05/19 04:15:27;;;;;;;6.72;3.53;;;;;;;;;;5042871;28;20029;-78
2023/05/19 04:17:53;;;;;;;7.47;3.83;;;;;;;;;;5036586;28;20462;-78
2023/05/19 04:20:18;;;;;;;7.03;3.15;;;;;;;;;;5040465;28;20659;-78
2023/05/19 04:22:43;;;;;;;5.40;3.33;;;;;;;;;;5030611;28;20029;-78
2023/05/19 04:25:09;;;;;;;6.70;3.40;;;;;;;;;;5020253;28;20059;-78
2023/05/19 04:27:38;;;;;;;7.72;3.30;;;;;;;;;;5021189;28;20035;-78
2023/05/19 04:30:07;;;;;;;7.00;3.75;;;;;;;;;;5038593;28;20115;-78
2023/05/19 04:32:32;;;;;;;8.63;3.28;;;;;;;;;;5043944;28;20079;-78
2023/05/19 04:34:58;;;;;;;5.53;3.30;;;;;;;;;;5036747;28;20389;-78
2023/05/19 04:37:26;;;;;;;5.95;3.38;;;;;;;;;;5023824;28;20025;-78
2023/05/19 04:39:51;;;;;;;8.70;3.50;;;;;;;;;;5037380;28;20490;-78
2023/05/19 04:42:20;;;;;;;9.07;3.75;;;;;;;;;;5027626;28;20059;-78
2023/05/19 04:44:50;;;;;;;7.80;3.25;;;;;;;;;;5021325;28;20025;-78
2023/05/19 04:47:16;;;;;;;8.10;3.55;;;;;;;;;;5021916;28;20048;-78
2023/05/19 04:49:42;;;;;;;6.65;3.63;;;;;;;;;;5037995;28;20032;-78
2023/05/19 04:52:11;;;;;;;5.53;3.20;;;;;;;;;;5022328;28;20047;-78
2023/05/19 04:54:37;;;;;;;6.32;3.45;;;;;;;;;;5042431;28;20021;-78
2023/05/19 04:57:03;;;;;;;6.47;3.38;;;;;;;;;;5023053;28;20021;-78
2023/05/19 04:59:29;;;;;;;7.22;3.80;;;;;;;;;;5037621;28;20031;-78
2023/05/19 05:01:55;;;;;;;8.35;3.80;;;;;;;;;;5042215;28;20049;-78
2023/05/19 05:04:21;;;;;;;8.32;3.92;;;;;;;;;;5036915;28;20365;-76
2023/05/19 05:06:47;;;;;;;6.07;3.15;;;;;;;;;;5047122;28;20352;-78
2023/05/19 05:09:16;;;;;;;6.40;3.70;;;;;;;;;;5033920;28;20028;-77
2023/05/19 05:11:42;;;;;;;7.13;3.80;;;;;;;;;;5020237;28;20504;-78
2023/05/19 05:14:08;;;;;;;7.60;3.67;;;;;;;;;;5045405;28;20025;-77
2023/05/19 05:16:34;;;;;;;9.85;4.15;;;;;;;;;;5043837;28;20061;-78
2023/05/19 05:19:00;;;;;;;10.55;4.18;;;;;;;;;;5046655;28;20141;-78
2023/05/19 05:21:27;;;;;;;7.47;3.53;;;;;;;;;;5043241;28;20143;-78
2023/05/19 05:23:53;;;;;;;7.78;3.70;;;;;;;;;;5041333;28;20033;-78
2023/05/19 05:26:20;;;;;;;7.72;3.97;;;;;;;;;;5021060;28;20036;-78
2023/05/19 05:28:45;;;;;;;7.60;3.92;;;;;;;;;;5024052;28;20400;-78
2023/05/19 05:31:11;;;;;;;7.68;3.92;;;;;;;;;;5036911;28;20032;-77
2023/05/19 05:33:37;;;;;;;8.88;3.97;;;;;;;;;;5038717;28;20033;-78
2023/05/19 05:36:03;;;;;;;9.40;3.80;;;;;;;;;;5038007;28;20041;-77
2023/05/19 05:38:29;;;;;;;6.65;4.07;;;;;;;;;;5040977;28;20535;-78
2023/05/19 05:40:54;;;;;;;7.82;3.88;;;;;;;;;;5041220;28;20029;-76
2023/05/19 05:43:20;;;;;;;7.03;3.67;;;;;;;;;;5038395;28;20021;-78
2023/05/19 05:45:45;;;;;;;8.00;3.72;;;;;;;;;;5040626;28;20028;-78
2023/05/19 05:48:11;;;;;;;11.38;4.47;;;;;;;;;;5022317;28;20090;-77
2023/05/19 05:50:36;;;;;;;7.68;3.50;;;;;;;;;;5044262;28;20061;-79
2023/05/19 05:53:03;;;;;;;7.57;4.10;;;;;;;;;;5042855;28;20075;-78
2023/05/19 05:55:29;;;;;;;7.57;4.20;;;;;;;;;;5040953;28;20028;-77
2023/05/19 05:57:55;;;;;;;10.15;4.10;;;;;;;;;;5038148;28;20397;-79
2023/05/19 06:00:21;;;;;;;10.70;4.03;;;;;;;;;;5047407;28;20029;-78
2023/05/19 06:02:49;;;;;;;7.55;3.50;;;;;;;;;;5040693;28;20032;-78
2023/05/19 06:05:15;;;;;;;11.32;4.32;;;;;;;;;;5047478;28;20021;-78
2023/05/19 06:07:40;;;;;;;6.85;3.97;;;;;;;;;;5048176;28;20499;-78
2023/05/19 06:10:07;;;;;;;7.65;3.83;;;;;;;;;;5041412;28;20231;-78
2023/05/19 06:12:33;;;;;;;6.43;4.10;;;;;;;;;;5029777;28;20122;-77
2023/05/19 06:14:58;;;;;;;9.35;4.28;;;;;;;;;;5050082;28;20469;-78
2023/05/19 06:17:24;;;;;;;8.52;3.97;;;;;;;;;;5030105;28;20032;-78
2023/05/19 06:19:49;;;;;;;9.07;4.05;;;;;;;;;;5045991;28;20037;-78
2023/05/19 06:22:15;;;;;;;8.90;4.13;;;;;;;;;;5032077;28;20043;-78
2023/05/19 06:24:40;;;;;;;6.28;4.45;;;;;;;;;;5033900;28;20032;-78
2023/05/19 06:27:06;;;;;;;9.75;4.55;;;;;;;;;;5046047;28;20055;-78
2023/05/19 06:29:31;;;;;;;12.98;4.57;;;;;;;;;;5044561;28;20461;-78
2023/05/19 06:31:58;;;;;;;7.90;3.83;;;;;;;;;;5037489;28;20036;-78
2023/05/19 06:34:23;;;;;;;11.18;4.18;;;;;;;;;;5034393;28;20021;-77
2023/05/19 06:36:48;;;;;;;8.32;4.50;;;;;;;;;;5039267;28;20487;-78
2023/05/19 06:39:14;;;;;;;10.30;4.15;;;;;;;;;;5042702;28;20033;-78
2023/05/19 06:41:39;;;;;;;9.40;4.00;;;;;;;;;;5036828;28;20040;-77
2023/05/19 06:44:07;;;;;;;9.38;4.25;;;;;;;;;;5038057;28;20138;-77
2023/05/19 06:46:33;;;;;;;7.47;4.43;;;;;;;;;;5038136;28;20116;-77
2023/05/19 06:48:59;;;;;;;7.72;4.22;;;;;;;;;;5040446;28;20448;-78
2023/05/19 06:51:25;;;;;;;9.57;3.88;;;;;;;;;;5041361;28;20025;-78
2023/05/19 06:53:50;;;;;;;11.32;4.13;;;;;;;;;;5037222;28;20025;-78
2023/05/19 06:56:17;;;;;;;9.40;3.75;;;;;;;;;;5038283;28;20171;-78
2023/05/19 06:58:42;;;;;;;9.07;4.20;;;;;;;;;;5032834;28;20477;-77
2023/05/19 07:01:08;;;;;;;8.23;4.13;;;;;;;;;;5035003;28;20025;-77
2023/05/19 07:03:33;;;;;;;8.75;3.72;;;;;;;;;;5040210;28;20119;-78
2023/05/19 07:05:58;;;;;;;8.88;4.82;;;;;;;;;;5044047;28;20025;-78
2023/05/19 07:08:26;;;;;;;8.32;4.10;;;;;;;;;;5036711;28;20370;-78
2023/05/19 07:10:51;;;;;;;9.05;3.90;;;;;;;;;;5037038;28;20499;-78
2023/05/19 07:13:17;;;;;;;7.07;4.05;;;;;;;;;;5043406;28;20065;-76
2023/05/19 07:15:42;;;;;;;7.50;4.25;;;;;;;;;;5041573;28;20123;-78
2023/05/19 07:18:07;;;;;;;6.80;3.85;;;;;;;;;;5041468;28;20030;-78
2023/05/19 07:20:33;;;;;;;6.88;4.40;;;;;;;;;;5025607;28;20469;-77
2023/05/19 07:22:58;;;;;;;9.18;4.18;;;;;;;;;;5043194;28;20060;-78
2023/05/19 07:25:25;;;;;;;9.68;4.07;;;;;;;;;;5024738;28;20032;-78
2023/05/19 07:27:51;;;;;;;8.27;4.20;;;;;;;;;;5024202;28;20036;-78
2023/05/19 07:30:16;;;;;;;10.00;4.15;;;;;;;;;;5018525;28;20029;-78
2023/05/19 07:32:41;;;;;;;8.35;4.05;;;;;;;;;;5023749;28;20036;-78
2023/05/19 07:35:07;;;;;;;7.13;3.60;;;;;;;;;;5020189;28;20025;-78
2023/05/19 07:37:32;;;;;;;9.93;4.35;;;;;;;;;;5021853;28;20076;-78
2023/05/19 07:39:58;;;;;;;6.85;3.72;;;;;;;;;;5023790;28;20533;-78
2023/05/19 07:42:23;;;;;;;7.43;3.90;;;;;;;;;;5039884;28;20036;-77
2023/05/19 07:44:48;;;;;;;7.53;3.67;;;;;;;;;;5019764;28;20028;-78
2023/05/19 07:47:14;;;;;;;8.65;3.42;;;;;;;;;;5027685;28;20034;-77
2023/05/19 07:49:39;;;;;;;8.32;3.65;;;;;;;;;;5016647;28;20033;-78
2023/05/19 07:52:05;;;;;;;9.07;3.85;;;;;;;;;;5028162;28;20032;-79
2023/05/19 07:54:30;;;;;;;6.80;3.60;;;;;;;;;;5021585;28;20022;-78
2023/05/19 07:56:56;;;;;;;9.35;3.42;;;;;;;;;;5030218;28;20029;-78
2023/05/19 07:59:21;;;;;;;12.93;3.70;;;;;;;;;;5007624;28;20486;-78
2023/05/19 08:01:46;;;;;;;8.13;3.45;;;;;;;;;;5027749;28;20056;-78
2023/05/19 08:04:12;;;;;;;6.70;3.55;;;;;;;;;;5027622;28;20111;-79
2023/05/19 08:06:37;;;;;;;8.50;3.40;;;;;;;;;;5019478;28;20052;-78
2023/05/19 08:09:04;;;;;;;6.60;3.22;;;;;;;;;;5010448;28;20104;-78
2023/05/19 08:11:29;;;;;;;7.28;3.38;;;;;;;;;;5029764;28;20021;-79
2023/05/19 08:13:54;;;;;;;7.90;3.50;;;;;;;;;;5012582;28;20124;-79
2023/05/19 08:16:20;;;;;;;7.00;3.30;;;;;;;;;;5012782;28;20395;-77
2023/05/19 08:18:45;;;;;;;8.52;3.60;;;;;;;;;;5026480;28;20047;-78
2023/05/19 08:21:11;;;;;;;5.97;3.20;;;;;;;;;;5016886;28;20034;-78
2023/05/19 08:23:37;;;;;;;9.32;3.13;;;;;;;;;;5020451;28;20025;-78
2023/05/19 08:26:02;;;;;;;6.15;2.90;;;;;;;;;;5021655;28;20096;-79
2023/05/19 08:28:27;;;;;;;6.03;3.25;;;;;;;;;;5028197;28;20489;-78
2023/05/19 08:30:53;;;;;;;8.35;2.75;;;;;;;;;;5015345;28;20469;-78
2023/05/19 08:33:20;;;;;;;6.60;3.03;;;;;;;;;;5023961;28;20033;-77
2023/05/19 08:35:46;;;;;;;9.20;3.72;;;;;;;;;;5018867;28;20029;-77
2023/05/19 08:38:11;;;;;;;6.03;2.70;;;;;;;;;;5007073;28;20368;-78
2023/05/19 08:40:40;;;;;;;7.10;3.30;;;;;;;;;;5008625;28;20036;-77
2023/05/19 08:43:05;;;;;;;5.53;2.47;;;;;;;;;;5031152;28;20029;-78
2023/05/19 08:45:33;;;;;;;5.95;2.50;;;;;;;;;;5029584;28;20083;-77
2023/05/19 08:47:58;;;;;;;9.10;2.78;;;;;;;;;;5036638;28;20473;-78
2023/05/19 08:50:29;;;;;;;6.65;2.70;;;;;;;;;;5038487;28;20025;-76
2023/05/19 08:53:00;;;;;;;5.65;2.63;;;;;;;;;;5044723;28;20052;-76
2023/05/19 08:55:46;;;;;;;6.57;2.30;;;;;;;;;;5029354;28;20481;-75
2023/05/19 08:58:12;;;;;;;8.25;2.58;;;;;;;;;;5033094;28;20029;-76
2023/05/19 09:00:37;;;;;;;7.13;2.40;;;;;;;;;;5042904;28;20075;-76
2023/05/19 09:03:04;;;;;;;7.97;2.25;;;;;;;;;;5043396;28;20141;-76
2023/05/19 09:05:30;;;;;;;6.50;2.00;;;;;;;;;;5026799;28;20872;-76
2023/05/19 09:07:56;;;;;;;4.82;2.13;;;;;;;;;;5044757;28;20048;-76
2023/05/19 09:10:21;;;;;;;4.55;2.30;;;;;;;;;;5044233;28;20029;-76
2023/05/19 09:12:48;;;;;;;5.28;1.90;;;;;;;;;;5042813;28;20032;-75
2023/05/19 09:15:19;;;;;;;6.75;2.67;;;;;;;;;;5028254;28;20017;-75
2023/05/19 09:17:46;;;;;;;5.22;1.85;;;;;;;;;;5025520;28;20481;-75
2023/05/19 09:20:13;;;;;;;6.13;2.00;;;;;;;;;;5049741;28;20040;-76
2023/05/19 09:22:44;;;;;;;4.13;2.00;;;;;;;;;;5044936;28;20028;-76
2023/05/19 09:25:21;;;;;;;6.05;2.10;;;;;;;;;;5053039;28;20021;-76
2023/05/19 09:27:47;;;;;;;5.45;1.98;;;;;;;;;;5051276;28;20029;-76
2023/05/19 09:30:14;;;;;;;7.45;2.30;;;;;;;;;;5045899;28;20076;-76
2023/05/19 09:32:40;;;;;;;5.55;1.90;;;;;;;;;;5029385;28;20403;-76
2023/05/19 09:35:06;;;;;;;4.28;1.63;;;;;;;;;;5026398;28;20029;-75
2023/05/19 09:37:31;;;;;;;4.53;1.50;;;;;;;;;;5051742;28;20028;-76
2023/05/19 09:39:57;;;;;;;3.88;1.70;;;;;;;;;;5048786;28;20056;-76
2023/05/19 09:42:26;;;;;;;4.35;1.38;;;;;;;;;;5044396;28;20032;-75
2023/05/19 09:45:01;;;;;;;6.20;1.90;;;;;;;;;;5047787;28;20025;-75
2023/05/19 09:47:31;;;;;;;6.55;1.60;;;;;;;;;;5045871;28;20488;-75
2023/05/19 09:49:57;;;;;;;4.40;1.50;;;;;;;;;;5048318;28;20082;-76
2023/05/19 09:52:23;;;;;;;6.50;2.08;;;;;;;;;;5048798;28;20481;-76
2023/05/19 09:54:50;;;;;;;3.50;1.50;;;;;;;;;;5036701;28;20029;-76
2023/05/19 09:57:16;;;;;;;6.18;2.08;;;;;;;;;;5049875;28;20029;-76
2023/05/19 09:59:42;;;;;;;7.15;2.30;;;;;;;;;;5045085;28;20031;-76
2023/05/19 10:02:15;;;;;;;4.18;1.70;;;;;;;;;;5045140;28;20191;-76
2023/05/19 10:04:41;;;;;;;;;;;;;;;;;;5037349;28;20567;-76
2023/05/19 10:07:08;;;;;;;4.25;1.70;;;;;;;;;;5048789;28;19913;-76
2023/05/19 10:09:35;;;;;;;4.13;1.50;;;;;;;;;;5023727;28;20017;-75
2023/05/19 10:12:01;;;;;;;4.18;1.60;;;;;;;;;;5037937;28;20516;-76
2023/05/19 10:14:28;;;;;;;5.53;1.83;;;;;;;;;;5049896;28;20025;-77
2023/05/19 10:16:55;;;;;;;6.60;1.90;;;;;;;;;;5045313;28;20025;-76
2023/05/19 10:19:25;;;;;;;3.67;1.48;;;;;;;;;;5044806;28;20044;-76
2023/05/19 10:21:51;;;;;;;4.25;1.73;;;;;;;;;;5045775;28;20041;-76
2023/05/19 10:24:17;;;;;;;6.07;1.98;;;;;;;;;;5051657;28;20025;-77
2023/05/19 10:26:45;;;;;;;4.72;1.58;;;;;;;;;;5043132;28;20408;-77
2023/05/19 10:29:14;;;;;;;4.78;1.73;;;;;;;;;;5027622;28;20100;-76
2023/05/19 10:31:42;;;;;;;5.00;1.55;;;;;;;;;;5052320;28;20329;-77
2023/05/19 10:34:31;;;;;;;6.10;1.60;;;;;;;;;;5048713;28;20032;-77
2023/05/19 10:37:12;;;;;;;3.10;1.80;;;;;;;;;;5039775;28;20028;-77
2023/05/19 10:39:41;;;;;;;5.05;1.60;;;;;;;;;;5028882;28;20025;-76
2023/05/19 10:42:33;;;;;;;10.07;2.00;;;;;;;;;;5049853;28;20040;-75
2023/05/19 10:45:08;;;;;;;3.93;1.57;;;;;;;;;;5041372;28;20034;-77
2023/05/19 10:47:34;;;;;;;4.82;1.90;;;;;;;;;;5050324;28;20021;-77
2023/05/19 10:49:59;;;;;;;6.07;1.90;;;;;;;;;;5046770;28;20480;-76
2023/05/19 10:52:25;;;;;;;4.88;2.03;;;;;;;;;;5047240;28;20033;-76
2023/05/19 10:54:53;;;;;;;5.53;2.22;;;;;;;;;;5042435;28;20037;-77
2023/05/19 10:57:30;;;;;;;5.40;2.20;;;;;;;;;;5041109;28;20021;-77
2023/05/19 10:59:57;;;;;;;7.18;2.00;;;;;;;;;;5048370;28;20025;-76
2023/05/19 11:02:38;;;;;;;5.25;2.20;;;;;;;;;;5039928;28;20025;-76
2023/05/19 11:05:15;;;;;;;6.15;2.40;;;;;;;;;;5039647;28;20582;-77
2023/05/19 11:07:54;;;;;;;6.18;2.20;;;;;;;;;;5051288;28;20035;-76
2023/05/19 11:10:24;;;;;;;5.80;2.10;;;;;;;;;;5043641;28;20021;-77
2023/05/19 11:12:49;;;;;;;5.95;1.98;;;;;;;;;;5028022;28;20144;-76
2023/05/19 11:15:15;;;;;;;4.30;1.95;;;;;;;;;;5041004;28;20505;-77
2023/05/19 11:17:44;;;;;;;6.78;2.10;;;;;;;;;;5044068;28;20039;-76
2023/05/19 11:20:24;;;;;;;8.77;2.20;;;;;;;;;;5043417;28;20033;-77
2023/05/19 11:23:31;;;;;;;4.55;1.70;;;;;;;;;;5049455;28;20029;-77
2023/05/19 11:26:00;;;;;;;4.97;1.90;;;;;;;;;;4984696;28;20030;-77
2023/05/19 11:28:28;;;;;;;4.78;1.90;;;;;;;;;;4985959;28;20023;-78
2023/05/19 11:30:56;;;;;;;4.07;1.80;;;;;;;;;;5004509;28;20036;-77
2023/05/19 11:33:25;;;;;;;7.55;1.85;;;;;;;;;;5030020;28;20505;-77
2023/05/19 11:35:52;;;;;;;4.07;1.88;;;;;;;;;;5051432;28;20025;-77
2023/05/19 11:38:19;;;;;;;5.68;2.60;;;;;;;;;;5051960;28;20033;-77
2023/05/19 11:40:46;;;;;;;4.38;1.88;;;;;;;;;;5049236;28;20116;-77
2023/05/19 11:43:12;;;;;;;3.85;1.77;;;;;;;;;;5046607;28;20017;-77
2023/05/19 11:45:38;;;;;;;5.90;1.67;;;;;;;;;;5045885;28;20028;-77
2023/05/19 11:48:04;;;;;;;5.43;1.80;;;;;;;;;;5024575;28;20033;-76
2023/05/19 11:50:30;;;;;;;3.90;1.80;;;;;;;;;;5012632;28;20056;-77
2023/05/19 11:52:56;;;;;;;5.55;2.00;;;;;;;;;;5028271;28;20025;-77
2023/05/19 11:55:21;;;;;;;4.97;1.95;;;;;;;;;;5024313;28;20049;-77
2023/05/19 11:58:03;;;;;;;3.97;1.80;;;;;;;;;;5026988;28;20069;-76
2023/05/19 12:00:35;;;;;;;6.93;1.77;;;;;;;;;;5025089;28;20037;-78
2023/05/19 12:03:01;;;;;;;3.05;1.70;;;;;;;;;;5025464;28;20452;-78
2023/05/19 12:05:28;;;;;;;4.75;1.70;;;;;;;;;;5023730;28;20128;-77
2023/05/19 12:07:53;;;;;;;2.92;1.70;;;;;;;;;;5009969;28;20161;-78
2023/05/19 12:10:22;;;;;;;5.03;1.90;;;;;;;;;;5010560;28;20104;-78
2023/05/19 12:12:50;;;;;;;3.97;1.67;;;;;;;;;;5027879;28;20389;-78
2023/05/19 12:15:19;;;;;;;3.67;1.63;;;;;;;;;;5010064;28;20026;-77
2023/05/19 12:17:45;;;;;;;5.20;1.85;;;;;;;;;;5023345;28;20032;-78
2023/05/19 12:20:11;;;;;;;6.55;1.80;;;;;;;;;;5027329;28;20100;-78
2023/05/19 12:22:36;;;;;;;8.23;2.10;;;;;;;;;;5006141;28;20036;-78
2023/05/19 12:25:03;;;;;;;5.65;2.25;;;;;;;;;;5030113;28;20017;-78
2023/05/19 12:27:29;;;;;;;5.13;1.95;;;;;;;;;;5023778;28;20478;-78
2023/05/19 12:29:58;;;;;;;5.72;1.80;;;;;;;;;;5025647;28;20024;-77
2023/05/19 12:32:25;;;;;;;5.70;1.80;;;;;;;;;;5029738;28;20073;-78
2023/05/19 12:34:51;;;;;;;4.72;1.83;;;;;;;;;;5030503;28;20021;-78
2023/05/19 12:37:16;;;;;;;5.85;1.80;;;;;;;;;;5022511;28;20602;-77
2023/05/19 12:39:43;;;;;;;7.75;2.10;;;;;;;;;;5020314;28;20155;-77
2023/05/19 12:42:10;;;;;;;6.05;1.73;;;;;;;;;;5027102;28;20026;-77
2023/05/19 12:44:37;;;;;;;5.63;1.98;;;;;;;;;;5024079;28;20032;-78
2023/05/19 12:47:04;;;;;;;4.72;1.60;;;;;;;;;;5031783;28;20060;-78
2023/05/19 12:49:30;;;;;;;5.97;1.77;;;;;;;;;;5027175;28;20484;-78
2023/05/19 12:51:55;;;;;;;5.05;1.73;;;;;;;;;;5034140;28;20027;-78
2023/05/19 12:54:21;;;;;;;3.80;1.58;;;;;;;;;;5026142;28;20029;-78
2023/05/19 12:56:52;;;;;;;4.80;1.98;;;;;;;;;;5039834;28;20035;-75
2023/05/19 12:59:25;;;;;;;4.75;1.55;;;;;;;;;;5027456;28;20037;-75
2023/05/19 13:01:57;;;;;;;8.32;2.10;;;;;;;;;;5043025;28;20033;-76
2023/05/19 13:04:24;;;;;;;4.70;1.70;;;;;;;;;;5047856;28;20028;-76
2023/05/19 13:06:49;;;;;;;3.58;1.55;;;;;;;;;;5044583;28;20087;-77
2023/05/19 13:09:16;;;;;;;6.28;2.00;;;;;;;;;;5038672;28;20021;-77
2023/05/19 13:11:42;;;;;;;5.18;1.95;;;;;;;;;;5041080;28;20026;-76
2023/05/19 13:14:08;;;;;;;5.45;1.90;;;;;;;;;;5032456;28;20040;-72
2023/05/19 13:16:34;;;;;;;4.50;1.77;;;;;;;;;;5045708;28;20025;-73
2023/05/19 13:18:59;;;;;;;5.57;1.67;;;;;;;;;;5046920;28;20091;-72
2023/05/19 13:21:25;;;;;;;5.82;1.90;;;;;;;;;;5052359;28;20393;-72
2023/05/19 13:23:51;;;;;;;4.25;1.90;;;;;;;;;;5041299;28;20020;-72
2023/05/19 13:26:16;;;;;;;4.03;1.58;;;;;;;;;;5048138;28;20036;-75
2023/05/19 13:28:42;;;;;;;4.45;1.83;;;;;;;;;;5050957;28;20024;-72
2023/05/19 13:31:07;;;;;;;4.70;1.80;;;;;;;;;;5047006;28;20047;-72
2023/05/19 13:33:32;;;;;;;7.30;2.13;;;;;;;;;;5054400;28;20029;-72
2023/05/19 13:35:58;;;;;;;4.57;1.75;;;;;;;;;;5061521;28;20033;-72
2023/05/19 13:38:23;;;;;;;6.43;1.90;;;;;;;;;;5041001;28;20029;-72
2023/05/19 13:40:49;;;;;;;4.55;1.70;;;;;;;;;;5048618;28;20052;-72
2023/05/19 13:43:14;;;;;;;4.75;1.70;;;;;;;;;;5026106;28;20029;-72
2023/05/19 13:45:41;;;;;;;4.85;1.90;;;;;;;;;;5053759;28;20045;-72
2023/05/19 13:48:07;;;;;;;5.95;1.85;;;;;;;;;;5054626;28;20025;-72
2023/05/19 13:50:33;;;;;;;4.85;1.88;;;;;;;;;;5047171;28;20119;-72
2023/05/19 13:52:58;;;;;;;6.15;1.80;;;;;;;;;;5046005;28;20466;-72
2023/05/19 13:55:26;;;;;;;5.80;2.15;;;;;;;;;;5052761;28;20030;-72
2023/05/19 13:57:51;;;;;;;5.07;1.98;;;;;;;;;;5042832;28;20028;-72
2023/05/19 14:00:17;;;;;;;5.20;1.88;;;;;;;;;;5034256;28;20112;-72
2023/05/19 14:02:43;;;;;;;4.72;2.13;;;;;;;;;;5051020;28;20468;-72
2023/05/19 14:05:08;;;;;;;3.42;1.77;;;;;;;;;;5050234;28;20159;-73
2023/05/19 14:07:34;;;;;;;4.80;1.80;;;;;;;;;;5055755;28;20029;-72
2023/05/19 14:10:00;;;;;;;4.97;2.15;;;;;;;;;;5051435;28;20112;-73
2023/05/19 14:12:25;;;;;;;5.60;2.00;;;;;;;;;;5038881;28;20120;-72
2023/05/19 14:14:51;;;;;;;3.85;1.75;;;;;;;;;;5057494;28;20465;-71
2023/05/19 14:17:16;;;;;;;6.60;1.90;;;;;;;;;;5034116;28;20027;-72
2023/05/19 14:19:41;;;;;;;5.70;1.80;;;;;;;;;;5051633;28;20021;-72
2023/05/19 14:22:07;;;;;;;5.35;1.77;;;;;;;;;;5050709;28;20142;-72
2023/05/19 14:24:32;;;;;;;4.78;1.60;;;;;;;;;;5055648;28;20275;-72
2023/05/19 14:26:57;;;;;;;6.32;1.85;;;;;;;;;;5048901;28;20028;-73
2023/05/19 14:29:23;;;;;;;5.43;1.88;;;;;;;;;;5045910;28;20116;-72
2023/05/19 14:31:48;;;;;;;4.90;2.35;;;;;;;;;;5028528;28;20098;-74
2023/05/19 14:34:16;;;;;;;6.32;2.30;;;;;;;;;;5038433;28;20064;-72
2023/05/19 14:36:43;;;;;;;6.35;2.25;;;;;;;;;;5052437;28;20036;-72
2023/05/19 14:39:08;;;;;;;3.53;1.90;;;;;;;;;;5051652;28;20063;-72
2023/05/19 14:41:33;;;;;;;3.47;1.73;;;;;;;;;;5046849;28;20458;-72
2023/05/19 14:43:59;;;;;;;4.45;1.80;;;;;;;;;;5048045;28;20084;-72